Time;durP1;ratioP1;P1;durP2;ratioP2;P2;SDS_P1;SDS_P2;PMS_P1;PMS_P2;Temp;Humidity;BMP_temperature;BMP_pressure;BME280_temperature;BME280_humidity;BME280_pressure;Samples;Min_cycle;Max_cycle;Signal;HPM_P1;HPM_P2
2023/08/17 00:02:13;;;;;;;3.85;1.05;;;;;;;14.13;50.68;102285.38;4974543;28;20057;-77
2023/08/17 00:04:39;;;;;;;2.65;0.75;;;;;;;14.09;51.22;102272.38;4974394;28;20045;-76
2023/08/17 00:07:05;;;;;;;2.55;0.70;;;;;;;14.05;51.39;102265.50;4975262;28;21062;-77
2023/08/17 00:09:31;;;;;;;4.63;0.82;;;;;;;13.97;51.63;102259.66;4991086;28;20046;-77
2023/08/17 00:11:57;;;;;;;2.10;0.68;;;;;;;13.89;51.64;102257.25;4977236;28;20037;-76
2023/08/17 00:14:23;;;;;;;4.85;0.80;;;;;;;14.03;51.49;102257.69;4974672;28;20037;-76
2023/08/17 00:16:51;;;;;;;4.30;0.38;;;;;;;13.96;51.75;102252.66;4978769;28;20120;-76
2023/08/17 00:19:17;;;;;;;3.58;0.60;;;;;;;14.04;51.80;102255.91;4978547;28;20054;-76
2023/08/17 00:21:44;;;;;;;2.47;0.70;;;;;;;14.00;51.90;102249.03;4994185;28;20038;-76
2023/08/17 00:24:10;;;;;;;5.18;0.63;;;;;;;14.13;51.19;102250.34;4963109;28;20566;-76
2023/08/17 00:26:35;;;;;;;2.55;1.67;;;;;;;14.05;51.49;102249.72;4980513;28;20041;-76
2023/08/17 00:29:01;;;;;;;7.15;1.15;;;;;;;13.95;51.92;102249.19;4982057;28;20038;-76
2023/08/17 00:31:26;;;;;;;4.72;0.82;;;;;;;13.83;52.54;102250.44;4977427;28;20037;-78
2023/08/17 00:33:52;;;;;;;4.00;0.63;;;;;;;14.03;51.74;102247.19;4982602;28;20121;-75
2023/08/17 00:36:17;;;;;;;3.08;0.50;;;;;;;13.94;51.92;102250.06;4995070;28;20270;-76
2023/08/17 00:38:43;;;;;;;3.47;1.00;;;;;;;13.96;52.12;102255.28;4984669;28;20049;-76
2023/08/17 00:41:08;;;;;;;1.85;0.95;;;;;;;13.88;52.06;102245.03;4994889;28;20041;-76
2023/08/17 00:43:34;;;;;;;5.93;0.80;;;;;;;13.85;52.29;102248.63;4976659;28;20097;-75
2023/08/17 00:45:59;;;;;;;5.22;0.95;;;;;;;13.85;52.49;102243.38;4980853;28;20037;-77
2023/08/17 00:48:28;;;;;;;2.08;0.65;;;;;;;13.83;52.68;102239.94;4980623;28;20135;-77
2023/08/17 00:50:55;;;;;;;4.57;0.63;;;;;;;13.87;52.53;102238.91;4978491;28;20507;-75
2023/08/17 00:53:22;;;;;;;7.55;1.23;;;;;;;13.73;53.12;102246.38;4993894;28;20115;-77
2023/08/17 00:55:52;;;;;;;4.53;0.90;;;;;;;13.81;52.98;102244.38;4962479;28;20044;-76
2023/08/17 00:58:17;;;;;;;4.57;1.10;;;;;;;13.87;52.83;102246.78;4980867;28;20119;-76
2023/08/17 01:00:43;;;;;;;4.40;0.95;;;;;;;13.90;52.78;102251.09;4996591;28;20476;-77
2023/08/17 01:03:09;;;;;;;5.75;1.60;;;;;;;13.94;52.81;102248.34;4994898;28;20132;-77
2023/08/17 01:05:34;;;;;;;3.58;1.20;;;;;;;13.99;52.97;102258.69;4978888;28;20083;-76
2023/08/17 01:08:00;;;;;;;6.07;1.25;;;;;;;14.03;52.59;102257.69;4979864;28;20084;-75
2023/08/17 01:10:37;;;;;;;3.75;0.98;;;;;;;14.00;52.75;102260.41;4980063;28;20715;-75
2023/08/17 01:13:13;;;;;;;2.10;0.65;;;;;;;14.08;52.51;102260.16;4963235;28;20034;-76
2023/08/17 01:15:48;;;;;;;5.97;1.77;;;;;;;14.04;52.36;102272.53;4989305;28;20096;-77
2023/08/17 01:18:28;;;;;;;4.00;0.80;;;;;;;14.06;52.45;102272.50;4977732;28;20049;-76
2023/08/17 01:20:54;;;;;;;7.20;1.00;;;;;;;14.02;52.60;102271.72;4970553;28;20025;-76
2023/08/17 01:23:22;;;;;;;1.67;0.50;;;;;;;14.01;52.56;102267.41;4960762;28;20290;-77
2023/08/17 01:25:48;;;;;;;10.18;0.77;;;;;;;14.06;52.77;102264.63;4981140;28;20033;-76
2023/08/17 01:28:13;;;;;;;2.90;1.10;;;;;;;14.14;52.40;102265.19;4980236;28;20099;-75
2023/08/17 01:30:46;;;;;;;3.08;0.77;;;;;;;14.04;52.48;102254.13;4978386;28;20065;-75
2023/08/17 01:33:17;;;;;;;3.67;0.85;;;;;;;14.09;52.63;102260.09;4976443;28;20053;-77
2023/08/17 01:35:51;;;;;;;3.78;0.77;;;;;;;14.17;52.13;102261.63;4979776;28;20105;-76
2023/08/17 01:38:19;;;;;;;2.22;0.50;;;;;;;14.19;52.16;102251.91;4990164;28;20049;-77
2023/08/17 01:40:49;;;;;;;3.35;0.45;;;;;;;13.98;52.89;102248.22;4979691;28;20026;-76
2023/08/17 01:43:16;;;;;;;1.65;0.55;;;;;;;14.06;52.28;102246.22;4975116;28;20041;-78
2023/08/17 01:45:46;;;;;;;1.50;0.45;;;;;;;13.99;52.90;102253.44;4997031;28;20041;-76
2023/08/17 01:48:11;;;;;;;6.90;0.90;;;;;;;14.06;52.78;102243.59;4994305;28;20041;-75
2023/08/17 01:50:37;;;;;;;5.40;1.10;;;;;;;14.02;52.71;102236.69;4976995;28;20022;-77
2023/08/17 01:53:03;;;;;;;5.00;1.80;;;;;;;14.06;52.39;102230.44;4993089;28;20416;-77
2023/08/17 01:55:28;;;;;;;4.28;0.43;;;;;;;13.91;53.16;102232.63;4979170;28;20050;-77
2023/08/17 01:57:54;;;;;;;1.70;0.40;;;;;;;13.84;53.29;102231.13;4985335;28;20078;-76
2023/08/17 02:00:19;;;;;;;4.25;0.65;;;;;;;13.93;52.96;102235.22;4979727;28;20120;-77
2023/08/17 02:02:45;;;;;;;5.57;0.50;;;;;;;13.94;53.15;102227.31;4993437;28;20073;-77
2023/08/17 02:05:11;;;;;;;6.55;0.70;;;;;;;13.96;53.27;102232.50;4988892;28;20096;-77
2023/08/17 02:07:36;;;;;;;4.95;0.77;;;;;;;13.88;53.81;102226.66;4976385;28;20029;-75
2023/08/17 02:10:02;;;;;;;4.43;1.17;;;;;;;13.99;53.19;102226.31;4977076;28;20076;-77
2023/08/17 02:12:27;;;;;;;2.38;0.60;;;;;;;14.03;53.14;102222.63;4974613;28;20030;-76
2023/08/17 02:14:53;;;;;;;2.35;0.95;;;;;;;14.02;53.67;102234.06;4964111;28;20029;-75
2023/08/17 02:17:21;;;;;;;4.07;0.95;;;;;;;14.02;53.38;102232.28;4991561;28;20532;-76
2023/08/17 02:19:47;;;;;;;8.20;0.63;;;;;;;13.89;53.63;102233.59;4978872;28;20079;-76
2023/08/17 02:22:14;;;;;;;2.45;0.40;;;;;;;13.91;53.85;102237.03;4975811;28;20037;-76
2023/08/17 02:24:40;;;;;;;5.40;0.63;;;;;;;13.84;53.86;102241.63;4957408;28;20064;-77
2023/08/17 02:27:06;;;;;;;10.45;0.88;;;;;;;13.92;53.44;102241.41;4965852;28;20408;-78
2023/08/17 02:29:31;;;;;;;3.47;0.73;;;;;;;14.00;53.29;102243.78;4978042;28;20046;-77
2023/08/17 02:31:58;;;;;;;2.80;0.85;;;;;;;13.91;53.85;102247.56;4976883;28;20116;-76
2023/08/17 02:34:25;;;;;;;5.50;0.43;;;;;;;14.04;53.20;102245.41;4955107;28;20513;-76
2023/08/17 02:36:51;;;;;;;4.32;0.50;;;;;;;14.00;53.65;102246.41;4990041;28;20033;-74
2023/08/17 02:39:16;;;;;;;2.33;0.43;;;;;;;14.05;53.27;102237.44;4971963;28;20033;-76
2023/08/17 02:41:44;;;;;;;3.78;0.80;;;;;;;14.04;53.37;102242.78;4997997;28;20072;-76
2023/08/17 02:44:10;;;;;;;14.77;1.27;;;;;;;14.09;53.38;102235.59;4976769;28;20077;-77
2023/08/17 02:46:39;;;;;;;8.40;0.95;;;;;;;14.02;53.81;102234.06;4979645;28;20026;-75
2023/08/17 02:49:04;;;;;;;3.92;0.50;;;;;;;13.93;53.93;102230.81;4976471;28;20746;-76
2023/08/17 02:51:29;;;;;;;8.65;1.02;;;;;;;14.09;53.79;102228.53;4977552;28;20032;-75
2023/08/17 02:53:55;;;;;;;2.30;0.45;;;;;;;14.20;53.59;102233.44;4978408;28;20033;-75
2023/08/17 02:56:20;;;;;;;6.38;0.50;;;;;;;14.27;53.18;102245.47;4979267;28;20129;-79
2023/08/17 02:58:47;;;;;;;3.40;0.90;;;;;;;14.24;53.60;102245.59;4975724;28;20717;-78
2023/08/17 03:01:12;;;;;;;3.40;0.93;;;;;;;14.26;53.35;102243.78;4996494;28;20037;-78
2023/08/17 03:03:37;;;;;;;3.90;0.70;;;;;;;14.18;53.73;102245.78;4985699;28;20535;-77
2023/08/17 03:06:03;;;;;;;5.90;0.70;;;;;;;14.31;53.44;102244.47;4978510;28;20033;-75
2023/08/17 03:08:29;;;;;;;6.28;1.15;;;;;;;14.15;53.82;102235.38;4974119;28;20054;-76
2023/08/17 03:10:54;;;;;;;6.78;1.45;;;;;;;14.22;53.84;102231.63;4978544;28;20041;-76
2023/08/17 03:13:20;;;;;;;4.28;1.08;;;;;;;14.12;54.33;102231.09;4972747;28;20050;-76
2023/08/17 03:15:46;;;;;;;3.00;1.27;;;;;;;14.03;54.54;102225.25;4970623;28;20079;-76
2023/08/17 03:18:11;;;;;;;5.93;0.85;;;;;;;14.01;54.95;102221.81;4960956;28;20134;-76
2023/08/17 03:20:38;;;;;;;3.78;1.00;;;;;;;13.91;55.15;102222.13;4979632;28;20030;-77
2023/08/17 03:23:07;;;;;;;3.03;0.80;;;;;;;13.89;55.24;102226.56;4958709;28;20041;-77
2023/08/17 03:25:34;;;;;;;2.13;0.50;;;;;;;14.05;54.87;102213.78;4977480;28;20076;-76
2023/08/17 03:28:00;;;;;;;3.28;0.57;;;;;;;13.97;54.82;102209.72;4987601;28;20073;-77
2023/08/17 03:30:26;;;;;;;8.38;1.13;;;;;;;14.00;54.92;102209.59;4974906;28;20723;-75
2023/08/17 03:32:51;;;;;;;5.13;0.88;;;;;;;13.88;55.06;102216.97;4988576;28;20046;-75
2023/08/17 03:35:17;;;;;;;2.67;0.38;;;;;;;13.88;55.02;102216.13;4989448;28;20038;-74
2023/08/17 03:37:43;;;;;;;6.80;0.57;;;;;;;13.88;55.15;102224.88;4989475;28;20026;-76
2023/08/17 03:40:10;;;;;;;4.65;0.77;;;;;;;13.87;54.88;102220.50;4976207;28;20104;-77
2023/08/17 03:42:35;;;;;;;4.88;0.50;;;;;;;13.96;54.71;102231.63;4958823;28;20443;-77
2023/08/17 03:45:01;;;;;;;1.48;0.50;;;;;;;13.76;55.21;102222.63;4975281;28;20050;-76
2023/08/17 03:47:27;;;;;;;9.23;0.52;;;;;;;13.90;54.75;102225.69;4958597;28;20092;-76
2023/08/17 03:49:53;;;;;;;4.47;0.45;;;;;;;13.84;54.82;102232.91;4976953;28;20040;-76
2023/08/17 03:52:18;;;;;;;1.17;0.30;;;;;;;13.84;55.07;102220.63;4978591;28;20038;-76
2023/08/17 03:54:44;;;;;;;3.17;0.80;;;;;;;13.80;54.84;102221.63;4959559;28;20049;-75
2023/08/17 03:57:09;;;;;;;4.53;0.57;;;;;;;13.80;55.07;102229.50;4978220;28;20656;-77
2023/08/17 03:59:35;;;;;;;2.78;0.43;;;;;;;13.78;55.00;102233.94;4973517;28;20500;-75
2023/08/17 04:02:01;;;;;;;3.95;0.80;;;;;;;13.79;55.02;102233.06;4984446;28;20761;-75
2023/08/17 04:04:27;;;;;;;6.18;0.85;;;;;;;13.80;55.03;102232.13;4966022;28;20124;-75
2023/08/17 04:06:54;;;;;;;2.65;0.70;;;;;;;13.77;55.02;102229.63;4982836;28;20040;-77
2023/08/17 04:09:19;;;;;;;3.03;0.60;;;;;;;13.70;55.05;102228.09;4979162;28;20065;-75
2023/08/17 04:11:44;;;;;;;3.53;0.47;;;;;;;13.65;55.08;102227.34;4982063;28;20510;-76
2023/08/17 04:14:13;;;;;;;2.63;0.50;;;;;;;13.66;55.29;102243.09;4985633;28;20029;-77
2023/08/17 04:16:39;;;;;;;2.63;0.60;;;;;;;13.75;54.94;102254.22;4976036;28;20501;-77
2023/08/17 04:19:05;;;;;;;6.05;0.88;;;;;;;13.67;54.75;102250.06;4999217;28;20046;-76
2023/08/17 04:21:30;;;;;;;7.70;0.93;;;;;;;13.62;55.00;102240.59;4981644;28;20065;-76
2023/08/17 04:23:56;;;;;;;5.20;0.57;;;;;;;13.64;54.48;102241.41;4992692;28;20049;-75
2023/08/17 04:26:22;;;;;;;2.92;0.73;;;;;;;13.39;55.43;102244.75;4996829;28;20041;-76
2023/08/17 04:28:47;;;;;;;3.70;0.95;;;;;;;13.42;54.99;102244.66;4980966;28;20073;-77
2023/08/17 04:31:17;;;;;;;3.53;0.40;;;;;;;13.49;54.86;102243.56;4981729;28;20113;-77
2023/08/17 04:33:43;;;;;;;5.80;0.77;;;;;;;13.33;55.45;102240.53;4957239;28;20645;-76
2023/08/17 04:36:09;;;;;;;3.13;0.57;;;;;;;13.28;55.57;102233.72;4979773;28;20038;-76
2023/08/17 04:38:34;;;;;;;3.42;0.40;;;;;;;13.40;55.17;102243.00;4974822;28;20121;-77
2023/08/17 04:41:00;;;;;;;4.35;0.40;;;;;;;13.15;55.98;102248.97;4980971;28;20865;-76
2023/08/17 04:43:25;;;;;;;1.88;0.40;;;;;;;13.29;55.25;102238.06;4993372;28;20100;-74
2023/08/17 04:45:52;;;;;;;2.58;0.30;;;;;;;13.29;55.30;102232.81;4983702;28;20775;-76
2023/08/17 04:48:18;;;;;;;4.95;0.50;;;;;;;13.35;55.09;102237.03;4978964;28;20061;-76
2023/08/17 04:50:45;;;;;;;2.08;0.45;;;;;;;13.51;54.30;102239.13;4980067;28;20058;-78
2023/08/17 04:53:10;;;;;;;5.97;0.60;;;;;;;13.39;54.68;102241.28;4985721;28;20056;-77
2023/08/17 04:55:36;;;;;;;2.80;0.45;;;;;;;13.41;54.66;102232.44;4977293;28;22328;-77
2023/08/17 04:58:02;;;;;;;0.90;0.40;;;;;;;13.48;54.41;102233.13;4985995;28;20037;-75
2023/08/17 05:00:28;;;;;;;1.20;0.28;;;;;;;13.53;54.14;102231.22;4961926;28;20157;-75
2023/08/17 05:02:55;;;;;;;3.03;0.30;;;;;;;13.45;54.47;102222.69;4981847;28;20061;-76
2023/08/17 05:05:23;;;;;;;3.22;0.52;;;;;;;13.21;54.93;102232.19;4960574;28;20053;-78
2023/08/17 05:07:50;;;;;;;5.07;0.30;;;;;;;13.62;54.19;102235.34;4976817;28;20085;-75
2023/08/17 05:10:16;;;;;;;2.38;0.50;;;;;;;13.65;54.06;102229.97;4982099;28;20049;-75
2023/08/17 05:12:42;;;;;;;3.90;0.20;;;;;;;13.69;53.71;102228.97;4982044;28;20033;-77
2023/08/17 05:15:10;;;;;;;2.88;0.30;;;;;;;13.65;54.10;102228.25;4988243;28;20049;-77
2023/08/17 05:17:35;;;;;;;2.10;0.65;;;;;;;13.61;53.90;102233.66;4996910;28;20087;-76
2023/08/17 05:20:03;;;;;;;2.85;0.40;;;;;;;13.80;53.61;102229.50;5004990;28;20182;-77
2023/08/17 05:22:29;;;;;;;4.07;0.40;;;;;;;13.90;53.06;102228.31;4980658;28;20041;-77
2023/08/17 05:24:55;;;;;;;5.38;0.70;;;;;;;13.93;53.20;102227.34;4977128;28;20087;-78
2023/08/17 05:27:21;;;;;;;5.15;0.20;;;;;;;13.89;53.36;102225.72;4975672;28;20048;-78
2023/08/17 05:29:47;;;;;;;2.33;0.38;;;;;;;14.13;52.75;102227.53;4957797;28;20799;-78
2023/08/17 05:32:13;;;;;;;4.53;0.43;;;;;;;14.21;52.69;102223.78;4980830;28;20108;-76
2023/08/17 05:34:40;;;;;;;1.67;0.57;;;;;;;14.16;52.58;102226.56;4978079;28;20603;-76
2023/08/17 05:37:06;;;;;;;2.30;0.40;;;;;;;14.12;52.50;102217.06;4964608;28;20041;-76
2023/08/17 05:39:32;;;;;;;3.30;0.30;;;;;;;14.15;52.89;102230.97;4975560;28;20034;-77
2023/08/17 05:41:58;;;;;;;1.55;0.35;;;;;;;14.26;52.21;102224.50;4980942;28;20086;-77
2023/08/17 05:44:23;;;;;;;1.00;0.63;;;;;;;14.26;52.40;102229.75;4974490;28;20132;-76
2023/08/17 05:46:49;;;;;;;2.10;0.20;;;;;;;14.48;51.87;102227.28;4980611;28;20147;-76
2023/08/17 05:49:14;;;;;;;3.33;0.20;;;;;;;14.52;51.89;102220.97;4978067;28;20038;-77
2023/08/17 05:51:40;;;;;;;2.38;0.68;;;;;;;14.41;51.75;102225.75;4990958;28;20084;-77
2023/08/17 05:54:07;;;;;;;4.90;0.60;;;;;;;14.52;52.15;102235.03;4977620;28;20537;-74
2023/08/17 05:56:32;;;;;;;4.95;0.20;;;;;;;14.53;51.73;102231.47;4994833;28;20608;-74
2023/08/17 05:58:58;;;;;;;2.10;0.20;;;;;;;14.53;51.62;102247.25;4981713;28;20042;-76
2023/08/17 06:01:23;;;;;;;0.40;0.10;;;;;;;14.61;51.55;102233.81;4960064;28;20044;-78
2023/08/17 06:03:49;;;;;;;4.18;0.17;;;;;;;14.68;51.37;102248.50;4990651;28;20050;-76
2023/08/17 06:06:15;;;;;;;0.98;0.35;;;;;;;14.80;50.73;102249.81;4994961;28;20457;-78
2023/08/17 06:08:41;;;;;;;1.98;0.35;;;;;;;14.81;50.63;102254.16;4979914;28;20056;-77
2023/08/17 06:11:06;;;;;;;4.82;0.30;;;;;;;14.82;50.78;102253.25;4962196;28;20041;-77
2023/08/17 06:13:32;;;;;;;0.70;0.10;;;;;;;14.80;50.60;102256.84;4971894;28;20567;-77
2023/08/17 06:15:57;;;;;;;2.55;0.30;;;;;;;15.06;50.03;102258.50;4992163;28;20082;-77
2023/08/17 06:18:23;;;;;;;2.88;0.38;;;;;;;14.88;49.67;102270.56;4978348;28;20158;-76
2023/08/17 06:20:51;;;;;;;4.75;0.30;;;;;;;15.03;49.44;102262.13;4975947;28;20030;-75
2023/08/17 06:23:17;;;;;;;4.03;0.30;;;;;;;15.02;49.45;102260.41;4975508;28;20041;-77
2023/08/17 06:25:43;;;;;;;2.47;0.20;;;;;;;15.05;49.16;102262.06;4978512;28;20586;-76
2023/08/17 06:28:08;;;;;;;2.58;0.55;;;;;;;14.88;49.86;102265.31;4994471;28;20106;-76
2023/08/17 06:30:34;;;;;;;1.55;0.20;;;;;;;14.90;49.28;102263.50;4971393;28;20179;-75
2023/08/17 06:32:59;;;;;;;4.22;0.35;;;;;;;14.89;49.12;102259.16;4991172;28;20042;-76
2023/08/17 06:35:25;;;;;;;2.20;0.20;;;;;;;14.86;49.31;102265.38;4980283;28;20455;-77
2023/08/17 06:37:55;;;;;;;1.85;0.22;;;;;;;14.82;48.99;102262.94;4978729;28;20058;-78
2023/08/17 06:40:21;;;;;;;1.75;0.22;;;;;;;14.88;49.38;102257.41;4994553;28;20726;-76
2023/08/17 06:42:46;;;;;;;2.45;0.20;;;;;;;14.64;49.74;102254.75;4977797;28;20032;-78
2023/08/17 06:45:12;;;;;;;1.75;0.30;;;;;;;14.87;49.74;102263.63;4981831;28;20975;-76
2023/08/17 06:47:38;;;;;;;0.90;0.20;;;;;;;14.94;49.29;102260.69;4971431;28;20119;-77
2023/08/17 06:50:04;;;;;;;3.70;0.25;;;;;;;;;;4975084;28;20441;-77
2023/08/17 06:52:29;;;;;;;4.22;0.43;;;;;;;14.80;49.25;102264.75;4956413;28;20073;-78
2023/08/17 06:54:55;;;;;;;2.20;0.30;;;;;;;14.93;48.92;102261.63;4960666;28;20042;-76
2023/08/17 06:57:21;;;;;;;0.90;0.17;;;;;;;14.80;49.34;102265.59;4993840;28;20030;-76
2023/08/17 06:59:47;;;;;;;1.02;0.20;;;;;;;14.97;49.14;102257.09;4977173;28;20069;-77
2023/08/17 07:02:13;;;;;;;4.45;0.52;;;;;;;15.25;48.95;102264.00;4995810;28;20064;-76
2023/08/17 07:04:38;;;;;;;2.42;0.17;;;;;;;15.50;47.85;102262.13;4989274;28;20049;-78
2023/08/17 07:07:04;;;;;;;0.73;0.20;;;;;;;15.48;48.09;102265.75;4980286;28;20042;-77
2023/08/17 07:09:29;;;;;;;4.80;0.30;;;;;;;15.35;48.30;102262.75;4990884;28;20054;-77
2023/08/17 07:11:55;;;;;;;4.32;0.20;;;;;;;15.32;47.96;102265.47;4988364;28;20030;-76
2023/08/17 07:14:21;;;;;;;3.78;0.20;;;;;;;15.37;48.52;102263.50;4973207;28;20052;-78
2023/08/17 07:16:46;;;;;;;2.65;0.20;;;;;;;15.49;47.79;102264.84;4971562;28;20103;-75
2023/08/17 07:19:13;;;;;;;2.60;0.20;;;;;;;15.41;48.18;102273.03;4980867;28;20131;-78
2023/08/17 07:21:38;;;;;;;5.22;0.25;;;;;;;15.09;48.53;102271.59;4956214;28;20038;-78
2023/08/17 07:24:15;;;;;;;3.22;0.40;;;;;;;15.02;48.99;102275.38;4981046;28;20040;-77
2023/08/17 07:26:40;;;;;;;2.58;0.35;;;;;;;15.05;49.04;102262.94;4992188;28;20037;-77
2023/08/17 07:29:06;;;;;;;1.45;0.20;;;;;;;15.01;48.87;102265.72;4961423;28;20057;-77
2023/08/17 07:31:33;;;;;;;1.15;0.20;;;;;;;14.74;49.62;102276.34;4978383;28;20044;-77
2023/08/17 07:33:59;;;;;;;1.27;0.10;;;;;;;14.61;49.83;102283.78;4973290;28;20121;-76
2023/08/17 07:36:25;;;;;;;2.05;0.20;;;;;;;14.81;48.75;102279.63;4978905;28;20376;-78
2023/08/17 07:38:51;;;;;;;1.92;0.10;;;;;;;14.94;49.00;102276.47;4975588;28;20051;-76
2023/08/17 07:41:16;;;;;;;1.42;0.30;;;;;;;14.76;49.35;102275.38;4979194;28;20054;-76
2023/08/17 07:43:41;;;;;;;1.25;0.30;;;;;;;15.02;48.85;102276.22;4958788;28;20139;-78
2023/08/17 07:46:07;;;;;;;4.78;0.17;;;;;;;15.22;48.82;102278.16;4981366;28;20112;-78
2023/08/17 07:48:33;;;;;;;2.22;0.10;;;;;;;15.11;49.36;102270.59;4961382;28;20098;-78
2023/08/17 07:50:59;;;;;;;3.83;0.10;;;;;;;15.36;48.56;102275.00;4962815;28;20044;-75
2023/08/17 07:53:28;;;;;;;2.53;0.20;;;;;;;15.36;48.49;102275.84;4977877;28;20054;-77
2023/08/17 07:55:54;;;;;;;2.10;0.30;;;;;;;15.04;48.80;102273.53;4970977;28;20040;-76
2023/08/17 07:58:19;;;;;;;3.35;0.35;;;;;;;14.95;49.05;102270.31;4977562;28;20046;-76
2023/08/17 08:00:45;;;;;;;7.97;0.20;;;;;;;15.06;48.37;102267.28;4988449;28;20050;-76
2023/08/17 08:03:11;;;;;;;1.70;0.10;;;;;;;15.31;48.20;102271.69;4960237;28;20039;-75
2023/08/17 08:05:36;;;;;;;3.42;0.38;;;;;;;15.30;48.34;102272.56;4970793;28;20073;-75
2023/08/17 08:08:02;;;;;;;0.95;0.50;;;;;;;15.54;48.55;102262.88;4974352;28;20058;-76
2023/08/17 08:10:28;;;;;;;1.48;0.60;;;;;;;15.63;48.00;102267.78;4977539;28;20038;-76
2023/08/17 08:12:54;;;;;;;1.23;0.40;;;;;;;15.90;46.72;102271.09;4989701;28;20407;-75
2023/08/17 08:15:19;;;;;;;5.22;0.20;;;;;;;16.13;46.64;102274.59;4972538;28;20092;-75
2023/08/17 08:17:45;;;;;;;2.17;0.20;;;;;;;16.44;46.05;102268.03;4988846;28;20040;-76
2023/08/17 08:20:11;;;;;;;1.30;0.20;;;;;;;16.75;46.14;102265.78;4962502;28;20733;-76
2023/08/17 08:22:36;;;;;;;0.70;0.10;;;;;;;16.97;45.35;102270.13;4955212;28;20033;-76
2023/08/17 08:25:02;;;;;;;6.65;0.30;;;;;;;16.72;45.63;102263.28;4973382;28;20033;-76
2023/08/17 08:27:27;;;;;;;1.48;0.75;;;;;;;16.65;46.23;102263.63;4977176;28;20520;-76
2023/08/17 08:29:52;;;;;;;1.58;0.22;;;;;;;16.94;45.12;102265.00;4989407;28;20115;-78
2023/08/17 08:32:18;;;;;;;3.13;0.10;;;;;;;16.74;44.90;102264.06;4972939;28;20077;-77
2023/08/17 08:34:43;;;;;;;0.93;0.10;;;;;;;16.77;45.16;102268.38;4969554;28;20500;-75
2023/08/17 08:37:09;;;;;;;4.68;0.20;;;;;;;16.54;45.58;102264.09;4974561;28;20030;-75
2023/08/17 08:39:51;;;;;;;2.50;0.10;;;;;;;16.64;45.21;102265.38;4974320;28;20957;-75
2023/08/17 08:42:18;;;;;;;1.33;0.63;;;;;;;16.89;45.31;102253.75;4973050;28;20129;-77
2023/08/17 08:44:44;;;;;;;4.13;0.47;;;;;;;16.85;44.86;102261.00;4990632;28;20050;-76
2023/08/17 08:47:11;;;;;;;3.22;0.20;;;;;;;17.18;45.05;102263.88;4984968;28;20030;-76
2023/08/17 08:49:50;;;;;;;2.35;0.20;;;;;;;16.79;45.14;102267.38;4991442;28;20052;-75
2023/08/17 08:52:22;;;;;;;5.47;0.30;;;;;;;16.69;45.78;102252.84;4975431;28;20036;-76
2023/08/17 08:54:50;;;;;;;5.32;0.40;;;;;;;17.03;45.35;102254.00;4972709;28;20058;-74
2023/08/17 08:57:17;;;;;;;2.92;0.20;;;;;;;16.72;45.26;102250.06;4973909;28;20446;-76
2023/08/17 08:59:45;;;;;;;1.13;0.30;;;;;;;16.76;46.22;102256.97;4980933;28;20053;-78
2023/08/17 09:02:16;;;;;;;3.65;0.30;;;;;;;16.77;46.06;102256.03;4993565;28;20496;-76
2023/08/17 09:04:45;;;;;;;2.60;0.20;;;;;;;16.46;46.55;102258.28;4981521;28;20544;-75
2023/08/17 09:07:12;;;;;;;3.08;0.32;;;;;;;16.61;46.51;102254.97;4975765;28;20033;-76
2023/08/17 09:09:37;;;;;;;3.45;0.35;;;;;;;16.58;46.53;102252.47;4978143;28;20045;-76
2023/08/17 09:12:06;;;;;;;3.00;0.32;;;;;;;16.34;47.07;102254.38;4981574;28;20683;-76
2023/08/17 09:14:32;;;;;;;4.38;0.40;;;;;;;16.34;47.81;102265.78;4999898;28;20046;-75
2023/08/17 09:16:58;;;;;;;1.75;0.30;;;;;;;16.31;47.91;102259.78;4997768;28;20034;-76
2023/08/17 09:19:25;;;;;;;2.05;0.47;;;;;;;16.32;47.63;102261.50;4983650;28;20711;-76
2023/08/17 09:21:51;;;;;;;2.50;0.40;;;;;;;16.49;47.62;102252.84;4967351;28;20026;-76
2023/08/17 09:24:16;;;;;;;4.22;0.45;;;;;;;16.13;48.17;102256.13;4995771;28;20048;-77
2023/08/17 09:26:42;;;;;;;5.65;0.38;;;;;;;16.24;48.68;102255.69;4998651;28;20091;-77
2023/08/17 09:29:18;;;;;;;1.83;0.35;;;;;;;16.50;47.94;102262.50;4983674;28;20042;-76
2023/08/17 09:31:43;;;;;;;5.18;1.10;;;;;;;16.55;47.88;102253.44;4997579;28;20048;-77
2023/08/17 09:34:09;;;;;;;3.45;0.98;;;;;;;16.51;47.66;102253.63;4975884;28;20062;-76
2023/08/17 09:36:39;;;;;;;4.03;0.70;;;;;;;16.33;47.81;102242.97;4995618;28;20121;-76
2023/08/17 09:39:04;;;;;;;3.40;0.30;;;;;;;16.35;48.45;102241.13;4977361;28;20042;-78
2023/08/17 09:41:30;;;;;;;4.75;0.55;;;;;;;16.18;48.72;102233.94;4983633;28;20112;-78
2023/08/17 09:43:55;;;;;;;2.40;0.82;;;;;;;16.19;48.55;102245.34;4980102;28;20057;-76
2023/08/17 09:46:21;;;;;;;2.65;0.68;;;;;;;16.37;48.36;102239.25;4996709;28;20040;-77
2023/08/17 09:48:47;;;;;;;2.67;0.40;;;;;;;16.52;48.28;102247.47;4979338;28;20049;-77
2023/08/17 09:51:16;;;;;;;5.88;0.30;;;;;;;16.52;47.96;102244.81;4979414;28;20030;-76
2023/08/17 09:53:42;;;;;;;2.55;0.60;;;;;;;16.60;47.49;102245.34;4997627;28;20046;-75
2023/08/17 09:56:10;;;;;;;0.75;0.20;;;;;;;16.60;47.92;102248.00;4978825;28;20041;-77
2023/08/17 09:58:37;;;;;;;2.90;0.50;;;;;;;16.60;48.47;102245.34;4991859;28;20132;-76
2023/08/17 10:01:08;;;;;;;1.65;0.30;;;;;;;16.46;48.17;102247.72;4962152;28;20058;-76
2023/08/17 10:03:34;;;;;;;2.70;0.70;;;;;;;16.46;48.12;102253.00;4990415;28;20052;-76
2023/08/17 10:06:06;;;;;;;0.80;0.20;;;;;;;16.29;48.40;102251.94;4992067;28;20129;-77
2023/08/17 10:08:36;;;;;;;1.27;0.25;;;;;;;16.10;49.09;102251.84;4992107;28;20116;-77
2023/08/17 10:11:04;;;;;;;0.93;0.32;;;;;;;16.12;49.29;102249.16;4960056;28;20029;-78
2023/08/17 10:13:47;;;;;;;3.50;0.68;;;;;;;15.97;49.77;102246.22;4993766;28;20050;-76
2023/08/17 10:16:39;;;;;;;4.93;0.63;;;;;;;16.29;49.30;102244.03;4981272;28;20049;-77
2023/08/17 10:19:36;;;;;;;4.72;0.57;;;;;;;16.28;49.31;102246.72;4964839;28;20048;-78
2023/08/17 10:22:36;;;;;;;1.58;0.52;;;;;;;16.18;49.41;102243.63;4978461;28;20833;-77
2023/08/17 10:25:04;;;;;;;1.58;0.85;;;;;;;16.10;49.45;102246.56;4957870;28;20042;-76
2023/08/17 10:27:30;;;;;;;2.65;0.52;;;;;;;16.02;49.91;102250.44;4996712;28;20064;-76
2023/08/17 10:29:56;;;;;;;5.47;1.95;;;;;;;16.31;49.52;102239.56;4979276;28;20026;-76
2023/08/17 10:32:23;;;;;;;4.13;0.88;;;;;;;16.47;49.25;102242.38;4996815;28;20286;-76
2023/08/17 10:34:51;;;;;;;2.55;0.57;;;;;;;16.61;49.21;102232.06;4978613;28;20651;-76
2023/08/17 10:37:18;;;;;;;3.90;0.88;;;;;;;16.63;48.76;102237.28;4983792;28;20138;-77
2023/08/17 10:39:48;;;;;;;2.53;0.70;;;;;;;16.67;48.79;102230.94;4978057;28;20042;-76
2023/08/17 10:42:29;;;;;;;8.45;0.70;;;;;;;16.93;48.56;102226.28;4971742;28;20030;-77
2023/08/17 10:44:54;;;;;;;3.47;0.65;;;;;;;16.36;49.31;102215.59;4991476;28;20041;-76
2023/08/17 10:47:28;;;;;;;1.88;0.63;;;;;;;16.94;48.20;102213.03;4979004;28;20045;-78
2023/08/17 10:49:58;;;;;;;3.58;1.17;;;;;;;17.08;48.43;102215.03;4977485;28;20133;-76
2023/08/17 10:52:33;;;;;;;3.45;0.63;;;;;;;17.43;47.29;102220.44;4997040;28;20263;-74
2023/08/17 10:55:05;;;;;;;7.43;0.65;;;;;;;16.74;49.37;102200.69;4994731;28;20045;-75
2023/08/17 10:57:35;;;;;;;1.92;0.70;;;;;;;17.51;47.68;102196.31;4992329;28;20141;-75
2023/08/17 11:00:15;;;;;;;4.65;1.00;;;;;;;18.21;46.06;102197.25;4994036;28;20089;-77
2023/08/17 11:02:43;;;;;;;3.20;0.95;;;;;;;18.80;44.92;102192.38;4995810;28;20103;-76
2023/08/17 11:05:12;;;;;;;1.65;0.50;;;;;;;19.25;43.03;102206.69;4978764;28;20030;-77
2023/08/17 11:07:42;;;;;;;3.55;1.00;;;;;;;18.81;44.16;102194.94;4977718;28;20149;-77
2023/08/17 11:10:20;;;;;;;4.00;0.70;;;;;;;19.14;43.38;102204.63;4980741;28;20095;-76
2023/08/17 11:12:46;;;;;;;6.10;0.57;;;;;;;18.92;43.46;102206.75;4976724;28;20622;-76
2023/08/17 11:15:11;;;;;;;6.57;1.20;;;;;;;18.20;45.52;102206.13;4974893;28;20122;-76
2023/08/17 11:17:37;;;;;;;1.98;0.50;;;;;;;18.56;45.05;102207.78;4973300;28;20032;-76
2023/08/17 11:20:03;;;;;;;10.13;0.73;;;;;;;18.88;43.51;102209.59;4979847;28;20670;-77
2023/08/17 11:22:29;;;;;;;2.60;0.88;;;;;;;19.29;43.75;102209.09;5006585;28;20034;-78
2023/08/17 11:24:55;;;;;;;4.78;1.00;;;;;;;19.41;42.66;102209.34;4980605;28;20523;-78
2023/08/17 11:27:20;;;;;;;3.50;0.50;;;;;;;19.18;42.68;102203.53;4989374;28;20504;-76